Clyde, North Dakota
Current Conditions -  °F | °C
As of 4:15 AM on Tuesday 21 Oct 2014 (Local Time) from K9D7 Reporting Station
Clear Clear  
Wind Chill: 39°   Ceiling: Unl
Heat Index: 45°   Visibility: 10mi
Dew Point: 39°   Wind: 12mph
Humidity: 81%   Direction: 150°SSE
Pressure: 29.96"   Gusts: NA
Location:  48.6309°N, 98.8489°W
Report Text: K9D7 210915Z AUTO 15010KT 10SM CLR 07/04 A2996 RMK AO2
Loading
Personal Weather Stations






























Interactive Weather Map
Tropical Storm Tracking
New forecast layout! Learn more

10-Day Weather Forecast

Advertisements
Track Severe Weather on mobile